createdAt,value
2018-05-08T00:01:16.774Z,6.87
2018-05-08T00:03:47.213Z,7.20
2018-05-08T00:06:18.230Z,6.93
2018-05-08T00:08:48.885Z,7.07
2018-05-08T00:11:19.722Z,5.90
2018-05-08T00:13:50.527Z,5.70
2018-05-08T00:16:21.845Z,6.57
2018-05-08T00:18:52.328Z,5.53
2018-05-08T00:21:22.996Z,7.50
2018-05-08T00:23:53.855Z,6.53
2018-05-08T00:26:24.526Z,7.87
2018-05-08T00:28:55.217Z,7.40
2018-05-08T00:31:26.098Z,7.47
2018-05-08T00:33:57.134Z,7.60
2018-05-08T00:36:28.532Z,6.65
2018-05-08T00:38:59.113Z,6.90
2018-05-08T00:41:29.933Z,7.60
2018-05-08T00:44:01.643Z,7.60
2018-05-08T00:46:32.331Z,6.45
2018-05-08T00:49:03.032Z,7.35
2018-05-08T00:51:34.261Z,7.60
2018-05-08T00:54:05.440Z,7.73
2018-05-08T00:56:36.204Z,7.37
2018-05-08T00:59:07.333Z,7.00
2018-05-08T01:01:38.291Z,7.30
2018-05-08T01:04:09.200Z,6.55
2018-05-08T01:06:39.626Z,6.28
2018-05-08T01:09:10.091Z,7.50
2018-05-08T01:11:40.557Z,7.20
2018-05-08T01:14:11.338Z,7.47
2018-05-08T01:16:42.713Z,8.88
2018-05-08T01:19:13.336Z,7.60
2018-05-08T01:21:43.527Z,7.60
2018-05-08T01:24:14.291Z,7.10
2018-05-08T01:26:45.378Z,7.60
2018-05-08T01:29:15.781Z,7.95
2018-05-08T01:31:47.378Z,7.82
2018-05-08T01:34:18.129Z,6.87
2018-05-08T01:36:49.362Z,6.80
2018-05-08T01:39:19.864Z,6.60
2018-05-08T01:41:50.498Z,7.30
2018-05-08T01:44:20.825Z,7.12
2018-05-08T01:46:53.086Z,7.10
2018-05-08T01:49:23.659Z,6.80
2018-05-08T01:51:54.171Z,6.03
2018-05-08T01:54:25.451Z,6.30
2018-05-08T01:56:56.441Z,6.25
2018-05-08T01:59:27.059Z,6.50
2018-05-08T02:01:59.008Z,6.57
2018-05-08T02:04:30.928Z,6.30
2018-05-08T02:07:02.493Z,7.57
2018-05-08T02:09:33.669Z,7.25
2018-05-08T02:12:04.577Z,7.10
2018-05-08T02:14:35.559Z,6.60
2018-05-08T02:17:06.326Z,7.10
2018-05-08T02:19:37.200Z,7.30
2018-05-08T02:22:08.684Z,7.18
2018-05-08T02:24:39.953Z,7.00
2018-05-08T02:27:10.762Z,6.90
2018-05-08T02:29:41.223Z,7.00
2018-05-08T02:32:12.332Z,6.68
2018-05-08T02:34:43.169Z,6.70
2018-05-08T02:37:14.279Z,7.30
2018-05-08T02:39:45.087Z,6.72
2018-05-08T02:42:16.875Z,6.70
2018-05-08T02:44:47.578Z,7.50
2018-05-08T02:47:18.590Z,7.57
2018-05-08T02:49:49.464Z,8.13
2018-05-08T02:52:20.189Z,7.73
2018-05-08T02:54:50.828Z,8.48
2018-05-08T02:57:21.808Z,8.02
2018-05-08T02:59:52.748Z,8.00
2018-05-08T03:02:23.777Z,7.90
2018-05-08T03:04:54.398Z,8.40
2018-05-08T03:07:24.967Z,8.20
2018-05-08T03:09:55.124Z,7.90
2018-05-08T03:12:25.804Z,8.45
2018-05-08T03:14:56.430Z,7.57
2018-05-08T03:17:29.041Z,7.85
2018-05-08T03:19:59.706Z,7.00
2018-05-08T03:22:30.660Z,6.50
2018-05-08T03:25:01.531Z,6.80
2018-05-08T03:27:32.637Z,6.67
2018-05-08T03:30:04.032Z,7.40
2018-05-08T03:32:34.464Z,7.90
2018-05-08T03:35:05.237Z,7.40
2018-05-08T03:37:36.626Z,8.50
2018-05-08T03:40:07.540Z,8.95
2018-05-08T03:42:38.337Z,8.52
2018-05-08T03:45:08.925Z,9.00
2018-05-08T03:47:41.342Z,8.50
2018-05-08T03:50:12.470Z,8.70
2018-05-08T03:52:42.878Z,7.60
2018-05-08T03:55:13.855Z,8.98
2018-05-08T03:57:44.920Z,7.20
2018-05-08T04:00:25.128Z,8.35
2018-05-08T04:06:16.169Z,8.15
2018-05-08T04:08:46.865Z,7.47
2018-05-08T04:11:17.124Z,7.20
2018-05-08T04:13:48.992Z,7.45
2018-05-08T04:16:19.654Z,6.95
2018-05-08T04:18:55.279Z,7.00
2018-05-08T04:21:26.863Z,7.95
2018-05-08T04:23:57.560Z,7.97
2018-05-08T04:26:28.274Z,7.32
2018-05-08T04:28:59.224Z,7.70
2018-05-08T04:31:30.082Z,8.07
2018-05-08T04:34:00.788Z,8.05
2018-05-08T04:36:33.056Z,8.57
2018-05-08T04:39:03.932Z,8.07
2018-05-08T04:41:34.682Z,7.70
2018-05-08T04:44:06.651Z,7.27
2018-05-08T04:46:37.717Z,7.50
2018-05-08T04:49:08.822Z,7.75
2018-05-08T04:51:40.001Z,7.70
2018-05-08T04:54:11.264Z,7.90
2018-05-08T04:56:46.648Z,8.38
2018-05-08T04:59:18.422Z,9.00
2018-05-08T05:01:50.472Z,9.13
2018-05-08T05:04:24.924Z,7.05
2018-05-08T05:07:30.987Z,8.90
2018-05-08T05:10:04.075Z,9.15
2018-05-08T05:12:34.801Z,7.70
2018-05-08T05:15:05.547Z,7.78
2018-05-08T05:18:27.335Z,9.13
2018-05-08T05:20:58.124Z,7.30
2018-05-08T05:23:29.496Z,7.30
2018-05-08T05:26:00.881Z,7.10
2018-05-08T05:28:34.060Z,5.53
2018-05-08T05:31:06.477Z,7.00
2018-05-08T05:37:14.163Z,6.07
2018-05-08T05:39:45.210Z,5.60
2018-05-08T05:42:19.604Z,5.70
2018-05-08T05:45:02.578Z,5.72
2018-05-08T05:47:36.293Z,5.70
2018-05-08T05:50:10.629Z,7.00
2018-05-08T05:52:42.962Z,7.95
2018-05-08T05:55:14.991Z,6.10
2018-05-08T05:57:46.695Z,5.87
2018-05-08T06:00:18.230Z,7.05
2018-05-08T06:03:05.351Z,6.75
2018-05-08T06:05:39.144Z,7.20
2018-05-08T06:08:11.952Z,7.75
2018-05-08T06:11:02.232Z,6.87
2018-05-08T06:13:34.416Z,7.55
2018-05-08T06:16:06.988Z,7.12
2018-05-08T06:18:38.857Z,6.60
2018-05-08T06:21:17.461Z,6.70
2018-05-08T06:26:45.255Z,5.95
2018-05-08T06:29:15.975Z,6.00
2018-05-08T06:31:46.921Z,5.60
2018-05-08T06:34:20.840Z,5.00
2018-05-08T06:36:52.009Z,4.60
2018-05-08T06:39:59.368Z,4.90
2018-05-08T06:45:58.781Z,5.10
2018-05-08T06:51:59.637Z,5.03
2018-05-08T06:54:31.760Z,5.30
2018-05-08T06:57:02.744Z,4.70
2018-05-08T06:59:58.936Z,5.00
2018-05-08T07:02:29.902Z,5.40
2018-05-08T07:05:20.030Z,4.80
2018-05-08T07:07:55.430Z,4.10
2018-05-08T07:10:29.965Z,4.50
2018-05-08T07:13:02.325Z,4.10
2018-05-08T07:15:33.529Z,4.25
2018-05-08T07:21:41.284Z,4.80
2018-05-08T07:24:13.607Z,4.82
2018-05-08T07:26:50.475Z,4.55
2018-05-08T07:29:21.699Z,4.50
2018-05-08T07:31:52.835Z,4.62
2018-05-08T07:34:23.700Z,4.93
2018-05-08T07:37:01.742Z,4.50
2018-05-08T07:39:45.979Z,4.57
2018-05-08T07:42:18.279Z,4.53
2018-05-08T07:44:49.316Z,4.47
2018-05-08T07:48:03.305Z,4.53
2018-05-08T07:50:52.754Z,5.27
2018-05-08T07:53:26.975Z,4.90
2018-05-08T07:56:02.410Z,5.10
2018-05-08T07:58:34.610Z,4.90
2018-05-08T08:01:11.331Z,5.03
2018-05-08T08:03:46.130Z,4.32
2018-05-08T08:06:37.336Z,4.95
2018-05-08T08:09:19.195Z,4.22
2018-05-08T08:11:51.299Z,5.10
2018-05-08T08:17:11.335Z,4.27
2018-05-08T08:19:44.680Z,4.60
2018-05-08T08:22:20.046Z,6.00
2018-05-08T08:28:20.877Z,4.33
2018-05-08T08:33:55.369Z,4.70
2018-05-08T08:36:34.935Z,4.30
2018-05-08T08:39:12.407Z,4.20
2018-05-08T08:41:50.463Z,4.53
2018-05-08T08:44:23.509Z,4.90
2018-05-08T08:46:55.157Z,4.30
2018-05-08T08:49:28.195Z,4.80
2018-05-08T08:51:59.950Z,4.40
2018-05-08T08:54:36.085Z,4.50
2018-05-08T08:57:07.382Z,4.90
2018-05-08T09:00:03.973Z,4.43
2018-05-08T09:02:36.851Z,4.67
2018-05-08T09:05:08.464Z,4.20
2018-05-08T09:07:39.880Z,3.80
2018-05-08T09:10:10.707Z,4.30
2018-05-08T09:12:45.969Z,4.10
2018-05-08T09:15:17.754Z,4.40
2018-05-08T09:17:49.391Z,4.00
2018-05-08T09:20:27.069Z,4.00
2018-05-08T09:22:59.090Z,3.15
2018-05-08T09:25:59.860Z,4.00
2018-05-08T09:28:31.310Z,3.60
2018-05-08T09:31:02.309Z,3.70
2018-05-08T09:33:52.801Z,4.00
2018-05-08T09:36:51.924Z,4.18
2018-05-08T09:39:29.447Z,3.78
2018-05-08T09:42:02.443Z,4.30
2018-05-08T09:44:33.693Z,3.45
2018-05-08T09:47:07.021Z,4.20
2018-05-08T09:49:40.347Z,3.80
2018-05-08T09:52:11.783Z,3.75
2018-05-08T09:54:44.195Z,4.13
2018-05-08T09:57:16.244Z,4.30
2018-05-08T09:59:47.236Z,3.73
2018-05-08T10:02:18.169Z,3.90
2018-05-08T10:04:50.839Z,3.78
2018-05-08T10:07:23.656Z,3.30
2018-05-08T10:09:56.876Z,4.10
2018-05-08T10:12:56.892Z,3.28
2018-05-08T10:15:27.353Z,4.30
2018-05-08T10:18:01.302Z,3.60
2018-05-08T10:21:01.103Z,3.80
2018-05-08T10:23:47.028Z,4.30
2018-05-08T10:26:22.490Z,3.72
2018-05-08T10:28:54.270Z,4.30
2018-05-08T10:31:24.765Z,4.85
2018-05-08T10:34:02.101Z,3.40
2018-05-08T10:37:16.391Z,3.83
2018-05-08T10:39:47.398Z,4.00
2018-05-08T10:42:17.672Z,3.53
2018-05-08T10:49:38.899Z,3.58
2018-05-08T10:52:11.286Z,3.75
2018-05-08T10:54:43.096Z,3.00
2018-05-08T10:57:23.278Z,2.78
2018-05-08T10:59:57.514Z,3.60
2018-05-08T11:02:50.042Z,2.87
2018-05-08T11:05:21.478Z,3.20
2018-05-08T11:07:53.410Z,3.22
2018-05-08T11:11:52.678Z,3.00
2018-05-08T11:14:25.018Z,3.10
2018-05-08T11:16:56.088Z,3.70
2018-05-08T11:19:27.019Z,3.50
2018-05-08T11:22:13.402Z,3.10
2018-05-08T11:24:44.332Z,2.70
2018-05-08T11:27:16.540Z,3.17
2018-05-08T11:29:48.129Z,3.33
2018-05-08T11:32:21.130Z,2.72
2018-05-08T11:34:52.842Z,3.15
2018-05-08T11:37:31.612Z,3.05
2018-05-08T11:40:11.748Z,3.30
2018-05-08T11:42:48.222Z,3.10
2018-05-08T11:45:49.849Z,2.83
2018-05-08T11:48:28.435Z,3.03
2018-05-08T11:51:01.261Z,3.05
2018-05-08T11:53:35.151Z,3.13
2018-05-08T11:56:05.576Z,3.08
2018-05-08T11:58:58.601Z,2.67
2018-05-08T12:01:30.119Z,2.75
2018-05-08T12:04:02.655Z,2.85
2018-05-08T12:06:33.829Z,2.80
2018-05-08T12:09:05.627Z,2.90
2018-05-08T12:11:41.536Z,3.10
2018-05-08T12:14:13.526Z,3.10
2018-05-08T12:16:44.929Z,2.50
2018-05-08T12:22:47.232Z,3.00
2018-05-08T12:25:19.182Z,3.30
2018-05-08T12:28:01.869Z,3.12
2018-05-08T12:30:34.235Z,3.10
2018-05-08T12:33:11.015Z,2.22
2018-05-08T12:35:57.519Z,2.50
2018-05-08T12:38:35.933Z,2.55
2018-05-08T12:41:11.787Z,2.70
2018-05-08T12:43:49.965Z,2.57
2018-05-08T12:46:26.528Z,2.90
2018-05-08T12:49:36.197Z,2.40
2018-05-08T12:52:13.680Z,3.12
2018-05-08T12:55:25.977Z,2.50
2018-05-08T12:57:59.125Z,2.95
2018-05-08T13:00:34.870Z,2.67
2018-05-08T13:03:26.767Z,2.67
2018-05-08T13:09:32.130Z,2.50
2018-05-08T13:12:47.752Z,2.70
2018-05-08T13:15:53.197Z,2.20
2018-05-08T13:18:25.670Z,2.53
2018-05-08T13:20:58.079Z,2.70
2018-05-08T13:23:31.026Z,2.80
2018-05-08T13:49:51.040Z,2.10
2018-05-08T13:52:55.503Z,2.60
2018-05-08T13:55:27.916Z,2.50
2018-05-08T13:58:08.159Z,2.30
2018-05-08T14:00:55.214Z,2.15
2018-05-08T14:03:28.555Z,2.85
2018-05-08T14:06:02.199Z,2.60
2018-05-08T14:08:35.308Z,2.30
2018-05-08T14:14:41.845Z,3.30
2018-05-08T14:20:40.024Z,3.00
2018-05-08T14:23:34.015Z,2.92
2018-05-08T14:26:32.974Z,3.42
2018-05-08T14:29:30.909Z,2.80
2018-05-08T14:32:18.571Z,3.40
2018-05-08T14:35:46.495Z,2.60
2018-05-08T14:38:53.855Z,3.20
2018-05-08T14:42:35.297Z,3.15
2018-05-08T14:45:27.822Z,2.70
2018-05-08T14:48:01.580Z,2.75
2018-05-08T14:53:46.566Z,3.40
2018-05-08T14:56:19.610Z,2.75
2018-05-08T14:59:31.124Z,2.90
2018-05-08T15:02:15.450Z,2.70
2018-05-08T15:04:54.842Z,2.80
2018-05-08T15:07:46.880Z,2.90
2018-05-08T15:10:25.772Z,3.12
2018-05-08T15:13:23.943Z,3.12
2018-05-08T15:19:15.335Z,2.95
2018-05-08T15:21:49.082Z,3.40
2018-05-08T15:24:42.579Z,3.43
2018-05-08T15:30:43.119Z,2.75
2018-05-08T15:33:40.142Z,2.90
2018-05-08T15:36:16.234Z,3.00
2018-05-08T15:38:46.780Z,3.20
2018-05-08T15:41:17.622Z,2.90
2018-05-08T15:46:56.295Z,3.10
2018-05-08T15:49:28.180Z,3.75
2018-05-08T15:54:38.349Z,3.90
2018-05-08T15:57:09.369Z,4.00
2018-05-08T15:59:41.463Z,4.28
2018-05-08T16:02:21.625Z,3.83
2018-05-08T16:05:10.752Z,3.90
2018-05-08T16:07:50.933Z,4.27
2018-05-08T16:10:38.434Z,4.40
2018-05-08T16:13:17.926Z,4.30
2018-05-08T16:15:48.669Z,4.40
2018-05-08T16:18:24.358Z,3.50
2018-05-08T16:21:00.228Z,3.97
2018-05-08T16:23:38.454Z,4.40
2018-05-08T16:26:11.999Z,4.72
2018-05-08T16:29:03.032Z,4.47
2018-05-08T16:31:49.636Z,4.70
2018-05-08T16:35:04.521Z,4.20
2018-05-08T16:44:00.985Z,4.00
2018-05-08T16:49:56.974Z,4.37
2018-05-08T16:52:32.547Z,4.90
2018-05-08T16:55:05.673Z,4.30
2018-05-08T16:57:37.736Z,5.20
2018-05-08T17:00:29.977Z,4.60
2018-05-08T17:03:08.644Z,4.50
2018-05-08T17:05:40.259Z,4.37
2018-05-08T17:08:15.507Z,4.80
2018-05-08T17:10:50.949Z,4.90
2018-05-08T17:13:28.215Z,4.90
2018-05-08T17:16:35.393Z,4.60
2018-05-08T17:19:10.252Z,4.50
2018-05-08T17:21:42.293Z,4.90
2018-05-08T17:24:23.765Z,4.40
2018-05-08T17:26:57.048Z,4.35
2018-05-08T17:29:28.300Z,4.50
2018-05-08T17:32:00.059Z,4.28
2018-05-08T17:34:30.987Z,4.80
2018-05-08T17:37:04.417Z,4.10
2018-05-08T17:39:41.555Z,4.35
2018-05-08T17:42:44.796Z,4.25
2018-05-08T17:45:18.397Z,4.30
2018-05-08T17:48:01.773Z,4.10
2018-05-08T17:50:53.341Z,4.50
2018-05-08T17:53:24.872Z,4.10
2018-05-08T17:55:56.888Z,4.30
2018-05-08T17:58:30.776Z,4.35
2018-05-08T18:01:02.777Z,4.60
2018-05-08T18:03:33.747Z,4.00
2018-05-08T18:06:08.672Z,4.03
2018-05-08T18:08:39.745Z,4.70
2018-05-08T18:11:23.566Z,3.62
2018-05-08T18:14:08.153Z,3.97
2018-05-08T18:16:48.412Z,3.80
2018-05-08T18:19:19.860Z,4.30
2018-05-08T18:21:56.532Z,3.78
2018-05-08T18:24:39.561Z,4.12
2018-05-08T18:27:12.039Z,3.70
2018-05-08T18:29:42.499Z,3.53
2018-05-08T18:32:13.284Z,2.90
2018-05-08T18:34:46.736Z,3.90
2018-05-08T18:37:19.096Z,3.50
2018-05-08T18:39:49.657Z,3.42
2018-05-08T18:42:21.217Z,3.42
2018-05-08T18:45:05.091Z,3.30
2018-05-08T18:47:55.834Z,3.60
2018-05-08T18:54:23.514Z,4.00
2018-05-08T18:56:54.801Z,4.28
2018-05-08T18:59:25.325Z,3.90
2018-05-08T19:01:57.723Z,4.85
2018-05-08T19:04:29.540Z,3.63
2018-05-08T19:07:00.126Z,4.10
2018-05-08T19:09:31.297Z,3.57
2018-05-08T19:12:01.418Z,3.70
2018-05-08T19:14:36.544Z,4.28
2018-05-08T19:17:09.963Z,4.12
2018-05-08T19:20:14.569Z,4.45
2018-05-08T19:22:46.604Z,4.30
2018-05-08T19:25:17.270Z,3.93
2018-05-08T19:27:50.897Z,4.05
2018-05-08T19:30:27.433Z,4.50
2018-05-08T19:33:01.581Z,4.12
2018-05-08T19:35:38.256Z,4.35
2018-05-08T19:38:13.444Z,4.40
2018-05-08T19:40:44.646Z,4.18
2018-05-08T19:43:16.265Z,4.35
2018-05-08T19:45:47.259Z,3.90
2018-05-08T19:48:18.372Z,3.85
2018-05-08T19:50:49.733Z,4.40
2018-05-08T19:53:20.872Z,4.35
2018-05-08T19:55:51.973Z,4.45
2018-05-08T19:58:22.949Z,4.40
2018-05-08T20:00:53.168Z,4.30
2018-05-08T20:03:24.501Z,4.95
2018-05-08T20:05:54.712Z,4.40
2018-05-08T20:08:26.146Z,4.90
2018-05-08T20:10:57.112Z,4.63
2018-05-08T20:13:28.676Z,4.70
2018-05-08T20:15:59.313Z,4.78
2018-05-08T20:18:30.625Z,4.20
2018-05-08T20:21:01.752Z,4.22
2018-05-08T20:23:36.554Z,4.50
2018-05-08T20:26:09.113Z,4.03
2018-05-08T20:28:39.715Z,4.70
2018-05-08T20:31:09.996Z,4.32
2018-05-08T20:33:41.365Z,4.78
2018-05-08T20:36:11.927Z,4.50
2018-05-08T20:38:42.954Z,4.30
2018-05-08T20:41:13.436Z,4.20
2018-05-08T20:43:43.635Z,4.10
2018-05-08T20:46:14.373Z,4.28
2018-05-08T20:48:44.947Z,4.30
2018-05-08T20:51:15.418Z,3.87
2018-05-08T20:53:46.095Z,4.40
2018-05-08T20:56:42.592Z,4.40
2018-05-08T20:59:15.787Z,4.10
2018-05-08T21:01:46.757Z,4.10
2018-05-08T21:04:17.383Z,4.80
2018-05-08T21:06:48.387Z,4.72
2018-05-08T21:09:20.089Z,4.72
2018-05-08T21:11:50.409Z,4.78
2018-05-08T21:14:20.824Z,4.68
2018-05-08T21:16:51.645Z,4.60
2018-05-08T21:20:44.573Z,4.83
2018-05-08T21:23:15.031Z,5.10
2018-05-08T21:25:45.844Z,4.87
2018-05-08T21:28:19.426Z,5.20
2018-05-08T21:31:24.123Z,5.60
2018-05-08T21:33:53.588Z,5.10
2018-05-08T21:36:23.096Z,5.15
2018-05-08T21:38:53.287Z,5.90
2018-05-08T21:41:49.161Z,5.70
2018-05-08T21:44:18.563Z,5.70
2018-05-08T22:01:10.587Z,5.60
2018-05-08T22:03:40.755Z,4.82
2018-05-08T22:06:11.560Z,4.82
2018-05-08T22:08:43.305Z,5.25
2018-05-08T22:11:13.771Z,4.72
2018-05-08T22:13:45.590Z,4.82
2018-05-08T22:34:13.442Z,6.40
2018-05-08T22:36:42.851Z,5.70
2018-05-08T22:39:13.752Z,5.78
